Detalii statie FERMA VISANI-IMB [000011A7]

Toti senzorii

Date Temperatura solului [C]Precipitatii [mm]Voltaj baterie [mV]Leaf Wetness [Min]HC Air temperature [C]HC Relative humidity [%]Punctul de roua [C]
medieminmaxsumaultimatimpmedieminmaxmediemediemin
2020-01-25 15:00:00 0 6112 0 8.79 8.57 8.97 52.34 -0.5 -0.7
2020-01-25 15:30:00 0 6074 0 8.46 7.63 8.94 55.03 -0.1 -0.5
2020-01-25 16:00:00 0 6082 0 7.23 6.84 7.61 57.8 -0.5 -2
2020-01-25 16:30:00 0 6044 0 6.9 6.26 7.16 55.95 -1.3 -1.8
2020-01-25 17:00:00 0 6024 0 5.48 4.21 6.41 52.15 0
2020-01-25 17:30:00 0 6014 0 3.94 3.41 4.6 0 0 0
2020-01-25 18:00:00 0 6004 0 2.08 1.47 2.88 0 0 0
2020-01-25 18:30:00 0 5996 0 1.01 0.51 1.52 0 0 0
2020-01-25 19:00:00 0 5996 0 -0.18 -0.85 0.49 0 0 0
2020-01-25 19:30:00 0 5996 0 -1.17 -1.34 -0.87 0 0 0
2020-01-25 20:00:00 0 5986 0 -1.16 -1.38 -0.98 0 0 0
2020-01-25 20:30:00 0 5986 0 -1.31 -1.74 -0.82 0 0 0
2020-01-25 21:00:00 0 5986 0 -2.1 -2.44 -1.62 0 0 0
2020-01-25 21:30:00 0 5976 0 -2.33 -2.7 -1.99 0 0 0
2020-01-25 22:00:00 0 5976 0 -2.67 -2.95 -2.49 0 0 0
2020-01-25 22:30:00 0 5976 0 -2.79 -3.06 -2.42 0 0 0
2020-01-25 23:00:00 0 5976 0 -2.87 -3.02 -2.65 0 0 0
2020-01-25 23:30:00 0 5966 0 -2.8 -3.17 -2.27 0 0 0
2020-01-26 00:00:00 0 5966 0 -2.47 -2.94 -2.15 0 0 0
2020-01-26 00:30:00 0 5966 0 -2.66 -3.11 -2.14 0 0 0
2020-01-26 01:00:00 0 5966 0 -3.87 -4.14 -3.47 0 0 0
2020-01-26 01:30:00 0 5966 0 -3.64 -4.17 -3.05 0 0 0
2020-01-26 02:00:00 0 5966 0 -3.81 -4.2 -3.39 0 0 0
2020-01-26 02:30:00 0 5966 0 -4.01 -4.35 -3.57 0 0 0
2020-01-26 03:00:00 0 5966 0 -4.76 -5.09 -4.43 0 0 0
2020-01-26 03:30:00 0 5966 0 -5.34 -5.7 -5.07 0 0 0
2020-01-26 04:00:00 0 5956 0 -5.18 -5.64 -4.98 0 0 0
2020-01-26 04:30:00 0 5956 0 -5.2 -5.47 -4.86 0 0 0
2020-01-26 05:00:00 0 5956 0 -5.29 -5.69 -4.9 0 0 0
2020-01-26 05:30:00 0 5956 0 -4.59 -5.22 -4.3 0 0 0
2020-01-26 06:00:00 0 5956 0 -5.61 -6.19 -5.08 0 0 0
2020-01-26 06:30:00 0 5956 0 -6.47 -6.74 -6.2 0 0 0
2020-01-26 07:00:00 0 5956 0 -6.65 -6.91 -6.37 0 0 0
2020-01-26 07:30:00 0 5946 0 -6.59 -6.77 -6.41 0 0 0
2020-01-26 08:00:00 0 5956 0 -6.07 -6.38 -5.61 0 0 0
2020-01-26 08:30:00 0 5956 0 -4.97 -5.38 -4.63 0 0 0
2020-01-26 09:00:00 0 5976 0 -4.13 -4.55 -3.62 0 0 0
2020-01-26 09:30:00 0 6044 0 -2.3 -3.43 -0.81 0 0 0
2020-01-26 10:00:00 0 6122 0 0.5 -0.14 1.04 0 0 0
2020-01-26 10:30:00 0 6142 0 2.16 1.26 3.28 0 0 0
2020-01-26 11:00:00 0 6152 0 3.91 3.26 5.09 0 0 0
2020-01-26 11:30:00 0 6142 0 6.93 5.82 7.78 17.41 -0.5 0
2020-01-26 12:00:00 0 6142 0 8.63 7.85 9.41 50.93 -1 -1.8
2020-01-26 12:30:00 0 6132 0 9.61 9.23 10.15 50.44 -0.3 -1.9
2020-01-26 13:00:00 0 6122 0 10.79 10.34 11.23 50.31 0.6 0.3
2020-01-26 13:30:00 0 6122 0 11.63 11.08 12.01 45.88 0.1 -0.4
2020-01-26 14:00:00 0 6122 0 11.8 11.56 12.05 42.26 -0.7 -1.1
2020-01-26 14:30:00 0 6082 0 11.88 11.67 12.03 42.74 -0.4 -0.8